Bridgeville, Delaware
Current Conditions -  °F | °C
As of 11:54 AM on Friday 24 Oct 2014 (Local Time) from KGED Reporting Station
Clear Clear  
Wind Chill: 64°   Ceiling: Unl
Heat Index: 64°   Visibility: 10mi
Dew Point: 45°   Wind: 9mph
Humidity: 50%   Direction: 330°NNW
Pressure: 29.9"   Gusts: 21mph
Location:  38.74°N, 75.6°W
Report Text: KGED 241554Z AUTO 33008G18KT 10SM CLR 18/07 A2990 RMK AO2 SLP123 T01780072
Loading
Personal Weather Stations






























Interactive Weather Map
Tropical Storm Tracking
New forecast layout! Learn more

10-Day Weather Forecast

Advertisements
Track Severe Weather on mobile